sensor_id;sensor_type;location;lat;lon;timestamp;pressure;altitude;pressure_sealevel;temperature;humidity
35649;BME280;21768;48.562;13.414;2023-02-28T00:00:05;98014.84;;;0.95;53.29
35649;BME280;21768;48.562;13.414;2023-02-28T00:02:41;98020.16;;;0.98;53.08
35649;BME280;21768;48.562;13.414;2023-02-28T00:05:08;98021.03;;;0.98;53.28
35649;BME280;21768;48.562;13.414;2023-02-28T00:07:35;98018.56;;;0.98;53.21
35649;BME280;21768;48.562;13.414;2023-02-28T00:10:01;98014.84;;;0.95;53.37
35649;BME280;21768;48.562;13.414;2023-02-28T00:12:27;98009.88;;;0.95;53.46
35649;BME280;21768;48.562;13.414;2023-02-28T00:14:52;98005.97;;;0.97;53.23
35649;BME280;21768;48.562;13.414;2023-02-28T00:17:18;98001.88;;;0.97;53.36
35649;BME280;21768;48.562;13.414;2023-02-28T00:19:47;98006.69;;;0.96;53.41
35649;BME280;21768;48.562;13.414;2023-02-28T00:22:14;98002.44;;;0.95;53.40
35649;BME280;21768;48.562;13.414;2023-02-28T00:24:40;97997.63;;;0.96;53.76
35649;BME280;21768;48.562;13.414;2023-02-28T00:27:05;98014.31;;;0.97;53.70
35649;BME280;21768;48.562;13.414;2023-02-28T00:29:31;98012.00;;;0.99;53.68
35649;BME280;21768;48.562;13.414;2023-02-28T00:31:56;97994.59;;;0.99;53.68
35649;BME280;21768;48.562;13.414;2023-02-28T00:34:21;97984.50;;;0.97;53.61
35649;BME280;21768;48.562;13.414;2023-02-28T00:36:47;98000.59;;;1.01;53.58
35649;BME280;21768;48.562;13.414;2023-02-28T00:39:15;97990.34;;;0.98;53.72
35649;BME280;21768;48.562;13.414;2023-02-28T00:41:41;97999.41;;;0.97;53.91
35649;BME280;21768;48.562;13.414;2023-02-28T00:44:06;98000.28;;;0.98;53.89
35649;BME280;21768;48.562;13.414;2023-02-28T00:46:31;97996.75;;;0.96;53.90
35649;BME280;21768;48.562;13.414;2023-02-28T00:48:57;97999.06;;;0.94;53.80
35649;BME280;21768;48.562;13.414;2023-02-28T00:51:22;97990.72;;;0.94;54.05
35649;BME280;21768;48.562;13.414;2023-02-28T00:53:47;97976.00;;;0.95;54.08
35649;BME280;21768;48.562;13.414;2023-02-28T00:56:13;97981.84;;;0.96;54.15
35649;BME280;21768;48.562;13.414;2023-02-28T00:58:39;97975.28;;;0.96;54.11
35649;BME280;21768;48.562;13.414;2023-02-28T01:01:04;97980.25;;;0.96;54.30
35649;BME280;21768;48.562;13.414;2023-02-28T01:03:29;97967.28;;;0.99;54.49
35649;BME280;21768;48.562;13.414;2023-02-28T01:05:55;97975.44;;;0.98;54.25
35649;BME280;21768;48.562;13.414;2023-02-28T01:08:20;97972.44;;;0.93;54.41
35649;BME280;21768;48.562;13.414;2023-02-28T01:10:46;97968.19;;;0.92;54.29
35649;BME280;21768;48.562;13.414;2023-02-28T01:13:13;97968.91;;;0.91;54.30
35649;BME280;21768;48.562;13.414;2023-02-28T01:15:43;97972.44;;;0.93;54.50
35649;BME280;21768;48.562;13.414;2023-02-28T01:18:09;97969.97;;;0.93;54.25
35649;BME280;21768;48.562;13.414;2023-02-28T01:20:37;97973.50;;;0.95;54.43
35649;BME280;21768;48.562;13.414;2023-02-28T01:23:05;97964.28;;;0.94;54.39
35649;BME280;21768;48.562;13.414;2023-02-28T01:25:30;97970.84;;;0.94;54.32
35649;BME280;21768;48.562;13.414;2023-02-28T01:27:56;97963.94;;;0.91;54.35
35649;BME280;21768;48.562;13.414;2023-02-28T01:30:21;97949.03;;;0.91;54.47
35649;BME280;21768;48.562;13.414;2023-02-28T01:32:47;97958.97;;;0.91;54.11
35649;BME280;21768;48.562;13.414;2023-02-28T01:35:12;97959.19;;;0.86;54.06
35649;BME280;21768;48.562;13.414;2023-02-28T01:37:38;97959.72;;;0.83;54.25
35649;BME280;21768;48.562;13.414;2023-02-28T01:40:03;97961.50;;;0.84;54.40
35649;BME280;21768;48.562;13.414;2023-02-28T01:42:29;97957.97;;;0.82;54.33
35649;BME280;21768;48.562;13.414;2023-02-28T01:45:28;97958.13;;;0.84;54.20
35649;BME280;21768;48.562;13.414;2023-02-28T01:47:48;97953.88;;;0.83;53.96
35649;BME280;21768;48.562;13.414;2023-02-28T01:50:18;97951.22;;;0.81;54.29
35649;BME280;21768;48.562;13.414;2023-02-28T01:52:45;97948.03;;;0.82;54.08
35649;BME280;21768;48.562;13.414;2023-02-28T01:55:12;97948.91;;;0.83;54.00
35649;BME280;21768;48.562;13.414;2023-02-28T01:57:46;97947.13;;;0.82;54.23
35649;BME280;21768;48.562;13.414;2023-02-28T02:00:16;97946.25;;;0.81;54.41
35649;BME280;21768;48.562;13.414;2023-02-28T02:02:45;97937.56;;;0.78;54.36
35649;BME280;21768;48.562;13.414;2023-02-28T02:05:18;97939.34;;;0.79;54.68
35649;BME280;21768;48.562;13.414;2023-02-28T02:07:46;97937.75;;;0.79;54.63
35649;BME280;21768;48.562;13.414;2023-02-28T02:10:21;97937.03;;;0.80;54.44
35649;BME280;21768;48.562;13.414;2023-02-28T02:21:53;97935.97;;;0.78;54.43
35649;BME280;21768;48.562;13.414;2023-02-28T02:24:48;97932.78;;;0.79;54.40
35649;BME280;21768;48.562;13.414;2023-02-28T02:36:05;97944.16;;;0.77;54.73
35649;BME280;21768;48.562;13.414;2023-02-28T02:38:34;97947.13;;;0.82;54.41
35649;BME280;21768;48.562;13.414;2023-02-28T02:43:40;97948.81;;;0.74;54.88
35649;BME280;21768;48.562;13.414;2023-02-28T02:49:09;97940.28;;;0.72;54.90
35649;BME280;21768;48.562;13.414;2023-02-28T02:51:38;97940.28;;;0.72;54.92
35649;BME280;21768;48.562;13.414;2023-02-28T02:54:08;97945.25;;;0.72;54.95
35649;BME280;21768;48.562;13.414;2023-02-28T02:56:39;97942.59;;;0.71;54.96
35649;BME280;21768;48.562;13.414;2023-02-28T02:59:09;97948.28;;;0.70;54.67
35649;BME280;21768;48.562;13.414;2023-02-28T03:01:37;97941.72;;;0.70;54.81
35649;BME280;21768;48.562;13.414;2023-02-28T03:04:10;97946.84;;;0.72;54.86
35649;BME280;21768;48.562;13.414;2023-02-28T03:06:36;97955.19;;;0.72;54.72
35649;BME280;21768;48.562;13.414;2023-02-28T03:09:02;97945.25;;;0.72;54.66
35649;BME280;21768;48.562;13.414;2023-02-28T03:11:28;97945.97;;;0.71;54.54
35649;BME280;21768;48.562;13.414;2023-02-28T03:19:51;97954.47;;;0.73;54.55
35649;BME280;21768;48.562;13.414;2023-02-28T03:27:38;97951.66;;;0.70;54.88
35649;BME280;21768;48.562;13.414;2023-02-28T03:30:23;97941.72;;;0.70;54.68
35649;BME280;21768;48.562;13.414;2023-02-28T03:35:29;97950.06;;;0.71;54.66
35649;BME280;21768;48.562;13.414;2023-02-28T03:38:02;97946.69;;;0.70;54.47
35649;BME280;21768;48.562;13.414;2023-02-28T03:40:31;97938.19;;;0.68;54.47
35649;BME280;21768;48.562;13.414;2023-02-28T03:43:03;97944.75;;;0.67;54.44
35649;BME280;21768;48.562;13.414;2023-02-28T03:45:32;97935.69;;;0.68;54.46
35649;BME280;21768;48.562;13.414;2023-02-28T03:48:02;97941.22;;;0.65;54.33
35649;BME280;21768;48.562;13.414;2023-02-28T03:53:21;97930.03;;;0.69;54.43
35649;BME280;21768;48.562;13.414;2023-02-28T03:55:59;97931.44;;;0.67;54.70
35649;BME280;21768;48.562;13.414;2023-02-28T03:58:42;97944.22;;;0.63;54.51
35649;BME280;21768;48.562;13.414;2023-02-28T04:01:23;97924.38;;;0.63;54.39
35649;BME280;21768;48.562;13.414;2023-02-28T04:03:51;97927.91;;;0.65;54.29
35649;BME280;21768;48.562;13.414;2023-02-28T04:06:19;97926.31;;;0.65;54.32
35649;BME280;21768;48.562;13.414;2023-02-28T04:08:45;97929.34;;;0.63;54.30
35649;BME280;21768;48.562;13.414;2023-02-28T04:13:56;97932.19;;;0.59;54.16
35649;BME280;21768;48.562;13.414;2023-02-28T04:16:21;97930.59;;;0.59;54.37
35649;BME280;21768;48.562;13.414;2023-02-28T04:18:47;97924.03;;;0.60;54.29
35649;BME280;21768;48.562;13.414;2023-02-28T04:21:13;97919.06;;;0.60;54.34
35649;BME280;21768;48.562;13.414;2023-02-28T04:23:38;97914.09;;;0.60;54.25
35649;BME280;21768;48.562;13.414;2023-02-28T04:26:04;97923.16;;;0.59;54.35
35649;BME280;21768;48.562;13.414;2023-02-28T04:28:30;97926.88;;;0.56;54.39
35649;BME280;21768;48.562;13.414;2023-02-28T04:30:57;97926.00;;;0.55;54.51
35649;BME280;21768;48.562;13.414;2023-02-28T04:33:23;97933.28;;;0.54;54.52
35649;BME280;21768;48.562;13.414;2023-02-28T04:35:48;97929.19;;;0.54;54.43
35649;BME280;21768;48.562;13.414;2023-02-28T04:38:22;97926.38;;;0.51;54.33
35649;BME280;21768;48.562;13.414;2023-02-28T04:40:47;97921.41;;;0.51;54.33
35649;BME280;21768;48.562;13.414;2023-02-28T04:43:13;97931.16;;;0.50;54.66
35649;BME280;21768;48.562;13.414;2023-02-28T04:45:38;97919.50;;;0.49;54.75
35649;BME280;21768;48.562;13.414;2023-02-28T04:48:03;97935.63;;;0.45;54.57
35649;BME280;21768;48.562;13.414;2023-02-28T04:50:29;97935.47;;;0.44;54.59
35649;BME280;21768;48.562;13.414;2023-02-28T04:52:54;97931.03;;;0.41;54.65
35649;BME280;21768;48.562;13.414;2023-02-28T04:55:19;97936.88;;;0.42;54.58
35649;BME280;21768;48.562;13.414;2023-02-28T04:57:45;97937.59;;;0.41;54.64
35649;BME280;21768;48.562;13.414;2023-02-28T05:00:10;97943.28;;;0.40;54.51
35649;BME280;21768;48.562;13.414;2023-02-28T05:02:37;97943.28;;;0.40;54.49
35649;BME280;21768;48.562;13.414;2023-02-28T05:05:03;97942.56;;;0.41;54.57
35649;BME280;21768;48.562;13.414;2023-02-28T05:07:28;97941.69;;;0.40;54.58
35649;BME280;21768;48.562;13.414;2023-02-28T05:09:54;97937.59;;;0.41;54.36
35649;BME280;21768;48.562;13.414;2023-02-28T05:12:19;97942.41;;;0.39;54.36
35649;BME280;21768;48.562;13.414;2023-02-28T05:14:45;97943.81;;;0.37;54.34
35649;BME280;21768;48.562;13.414;2023-02-28T05:17:10;97943.81;;;0.37;54.43
35649;BME280;21768;48.562;13.414;2023-02-28T05:19:35;97941.34;;;0.37;54.34
35649;BME280;21768;48.562;13.414;2023-02-28T05:22:01;97946.28;;;0.37;54.32
35649;BME280;21768;48.562;13.414;2023-02-28T05:24:27;97940.44;;;0.37;54.30
35649;BME280;21768;48.562;13.414;2023-02-28T05:26:54;97936.38;;;0.30;54.25
35649;BME280;21768;48.562;13.414;2023-02-28T05:29:20;97946.31;;;0.30;54.24
35649;BME280;21768;48.562;13.414;2023-02-28T05:31:46;97944.53;;;0.29;54.35
35649;BME280;21768;48.562;13.414;2023-02-28T05:34:11;97949.84;;;0.32;54.54
35649;BME280;21768;48.562;13.414;2023-02-28T05:36:38;97945.44;;;0.29;54.56
35649;BME280;21768;48.562;13.414;2023-02-28T05:39:05;97939.75;;;0.30;54.73
35649;BME280;21768;48.562;13.414;2023-02-28T05:41:32;97936.75;;;0.33;54.67
35649;BME280;21768;48.562;13.414;2023-02-28T05:43:57;97942.41;;;0.39;54.38
35649;BME280;21768;48.562;13.414;2023-02-28T05:46:24;97955.16;;;0.42;54.24
35649;BME280;21768;48.562;13.414;2023-02-28T05:48:50;97950.91;;;0.41;54.34
35649;BME280;21768;48.562;13.414;2023-02-28T05:51:16;97950.69;;;0.47;54.28
35649;BME280;21768;48.562;13.414;2023-02-28T05:53:42;97952.47;;;0.48;54.07
35649;BME280;21768;48.562;13.414;2023-02-28T05:56:07;97958.31;;;0.48;54.25
35649;BME280;21768;48.562;13.414;2023-02-28T05:58:33;97959.19;;;0.49;54.21
35649;BME280;21768;48.562;13.414;2023-02-28T06:01:00;97959.56;;;0.45;54.04
35649;BME280;21768;48.562;13.414;2023-02-28T06:03:43;97962.94;;;0.45;53.85
35649;BME280;21768;48.562;13.414;2023-02-28T06:06:08;97963.47;;;0.43;53.83
35649;BME280;21768;48.562;13.414;2023-02-28T06:08:34;97963.66;;;0.44;54.07
35649;BME280;21768;48.562;13.414;2023-02-28T06:11:03;97968.38;;;0.50;53.95
35649;BME280;21768;48.562;13.414;2023-02-28T06:13:28;97966.25;;;0.53;54.14
35649;BME280;21768;48.562;13.414;2023-02-28T06:15:53;97973.34;;;0.57;54.12
35649;BME280;21768;48.562;13.414;2023-02-28T06:18:19;97970.31;;;0.59;54.56
35649;BME280;21768;48.562;13.414;2023-02-28T06:20:44;97974.38;;;0.66;54.02
35649;BME280;21768;48.562;13.414;2023-02-28T06:23:09;97979.31;;;0.73;53.90
35649;BME280;21768;48.562;13.414;2023-02-28T06:25:35;97975.00;;;0.79;53.70
35649;BME280;21768;48.562;13.414;2023-02-28T06:28:00;97977.09;;;0.83;53.76
35649;BME280;21768;48.562;13.414;2023-02-28T06:30:25;97981.69;;;0.87;53.74
35649;BME280;21768;48.562;13.414;2023-02-28T06:32:53;97989.13;;;0.94;53.49
35649;BME280;21768;48.562;13.414;2023-02-28T06:35:19;97976.34;;;0.98;53.42
35649;BME280;21768;48.562;13.414;2023-02-28T06:37:45;97988.88;;;1.00;53.39
35649;BME280;21768;48.562;13.414;2023-02-28T06:40:10;97974.31;;;1.03;53.15
35649;BME280;21768;48.562;13.414;2023-02-28T06:42:38;97990.47;;;1.07;53.21
35649;BME280;21768;48.562;13.414;2023-02-28T06:45:03;97992.91;;;1.14;53.23
35649;BME280;21768;48.562;13.414;2023-02-28T06:47:34;98001.75;;;1.19;53.18
35649;BME280;21768;48.562;13.414;2023-02-28T06:50:00;98006.19;;;1.21;53.03
35649;BME280;21768;48.562;13.414;2023-02-28T06:52:26;98007.38;;;1.25;52.84
35649;BME280;21768;48.562;13.414;2023-02-28T06:54:52;98005.41;;;1.29;52.41
35649;BME280;21768;48.562;13.414;2023-02-28T06:57:27;98021.53;;;1.33;52.59
35649;BME280;21768;48.562;13.414;2023-02-28T06:59:52;98016.91;;;1.36;52.51
35649;BME280;21768;48.562;13.414;2023-02-28T07:02:18;98022.53;;;1.42;52.27
35649;BME280;21768;48.562;13.414;2023-02-28T07:04:43;98016.78;;;1.50;52.16
35649;BME280;21768;48.562;13.414;2023-02-28T07:07:09;98016.03;;;1.58;52.18
35649;BME280;21768;48.562;13.414;2023-02-28T07:09:35;98013.50;;;1.65;52.00
35649;BME280;21768;48.562;13.414;2023-02-28T07:12:00;98015.59;;;1.69;51.84
35649;BME280;21768;48.562;13.414;2023-02-28T07:14:25;98016.22;;;1.76;51.76
35649;BME280;21768;48.562;13.414;2023-02-28T07:16:51;98019.38;;;1.82;51.63
35649;BME280;21768;48.562;13.414;2023-02-28T07:19:16;98018.44;;;1.88;51.24
35649;BME280;21768;48.562;13.414;2023-02-28T07:21:42;98023.22;;;1.94;51.25
35649;BME280;21768;48.562;13.414;2023-02-28T07:24:07;98017.84;;;1.98;50.97
35649;BME280;21768;48.562;13.414;2023-02-28T07:26:33;98013.66;;;2.05;51.04
35649;BME280;21768;48.562;13.414;2023-02-28T07:29:01;98028.38;;;2.11;50.96
35649;BME280;21768;48.562;13.414;2023-02-28T07:31:27;98019.06;;;2.17;50.60
35649;BME280;21768;48.562;13.414;2023-02-28T07:33:52;98020.03;;;2.26;51.29
35649;BME280;21768;48.562;13.414;2023-02-28T07:36:19;98018.34;;;2.34;50.17
35649;BME280;21768;48.562;13.414;2023-02-28T07:38:46;98021.84;;;2.43;49.94
35649;BME280;21768;48.562;13.414;2023-02-28T07:41:16;98014.44;;;2.52;50.04
35649;BME280;21768;48.562;13.414;2023-02-28T07:43:42;98017.00;;;2.60;49.78
35649;BME280;21768;48.562;13.414;2023-02-28T07:46:10;98017.50;;;2.65;49.52
35649;BME280;21768;48.562;13.414;2023-02-28T07:48:37;98020.91;;;2.74;49.55
35649;BME280;21768;48.562;13.414;2023-02-28T07:51:02;98020.53;;;2.78;49.08
35649;BME280;21768;48.562;13.414;2023-02-28T07:53:28;98022.78;;;2.84;48.83
35649;BME280;21768;48.562;13.414;2023-02-28T07:55:58;98022.59;;;2.82;48.55
35649;BME280;21768;48.562;13.414;2023-02-28T07:58:25;98024.06;;;2.96;48.75
35649;BME280;21768;48.562;13.414;2023-02-28T08:00:51;98021.19;;;3.08;48.60
35649;BME280;21768;48.562;13.414;2023-02-28T08:03:21;98024.69;;;3.26;48.19
35649;BME280;21768;48.562;13.414;2023-02-28T08:05:47;98020.72;;;3.44;47.95
35649;BME280;21768;48.562;13.414;2023-02-28T08:08:13;98022.25;;;3.59;47.59
35649;BME280;21768;48.562;13.414;2023-02-28T08:10:39;98008.84;;;3.83;47.54
35649;BME280;21768;48.562;13.414;2023-02-28T08:13:05;98009.34;;;5.07;45.84
35649;BME280;21768;48.562;13.414;2023-02-28T08:15:30;98001.72;;;7.33;41.65
35649;BME280;21768;48.562;13.414;2023-02-28T08:17:56;97998.25;;;9.23;37.83
35649;BME280;21768;48.562;13.414;2023-02-28T08:20:22;98005.88;;;10.75;36.02
35649;BME280;21768;48.562;13.414;2023-02-28T08:22:48;97989.38;;;12.22;33.60
35649;BME280;21768;48.562;13.414;2023-02-28T08:25:14;97999.53;;;12.98;32.27
35649;BME280;21768;48.562;13.414;2023-02-28T08:27:39;97989.69;;;13.82;31.07
35649;BME280;21768;48.562;13.414;2023-02-28T08:30:05;97991.78;;;14.30;30.02
35649;BME280;21768;48.562;13.414;2023-02-28T08:32:32;97993.78;;;14.63;29.07
35649;BME280;21768;48.562;13.414;2023-02-28T08:34:58;97988.91;;;15.11;28.47
35649;BME280;21768;48.562;13.414;2023-02-28T08:37:24;97986.72;;;15.02;27.80
35649;BME280;21768;48.562;13.414;2023-02-28T08:39:49;97986.91;;;14.90;27.53
35649;BME280;21768;48.562;13.414;2023-02-28T08:42:15;97994.63;;;15.67;27.18
35649;BME280;21768;48.562;13.414;2023-02-28T08:44:40;97988.47;;;15.78;27.16
35649;BME280;21768;48.562;13.414;2023-02-28T08:47:06;97989.53;;;16.47;26.01
35649;BME280;21768;48.562;13.414;2023-02-28T08:49:31;97986.69;;;17.43;24.79
35649;BME280;21768;48.562;13.414;2023-02-28T08:51:57;97988.41;;;17.97;24.31
35649;BME280;21768;48.562;13.414;2023-02-28T08:54:23;97984.78;;;17.39;24.83
35649;BME280;21768;48.562;13.414;2023-02-28T08:56:48;97987.81;;;16.96;24.92
35649;BME280;21768;48.562;13.414;2023-02-28T08:59:14;97996.31;;;17.30;24.81
35649;BME280;21768;48.562;13.414;2023-02-28T09:01:40;97989.84;;;18.48;23.36
35649;BME280;21768;48.562;13.414;2023-02-28T09:04:07;97988.47;;;19.36;22.13
35649;BME280;21768;48.562;13.414;2023-02-28T09:06:34;97995.69;;;20.12;21.22
35649;BME280;21768;48.562;13.414;2023-02-28T09:08:59;97994.94;;;20.37;20.71
35649;BME280;21768;48.562;13.414;2023-02-28T09:11:27;97993.78;;;19.84;21.33
35649;BME280;21768;48.562;13.414;2023-02-28T09:13:52;98002.25;;;18.78;21.83
35649;BME280;21768;48.562;13.414;2023-02-28T09:16:17;98007.22;;;16.76;23.22
35649;BME280;21768;48.562;13.414;2023-02-28T09:18:43;98020.38;;;15.27;25.39
35649;BME280;21768;48.562;13.414;2023-02-28T09:21:13;98017.34;;;14.05;26.70
35649;BME280;21768;48.562;13.414;2023-02-28T09:23:43;98018.38;;;14.50;26.59
35649;BME280;21768;48.562;13.414;2023-02-28T09:26:16;98017.63;;;14.66;25.88
35649;BME280;21768;48.562;13.414;2023-02-28T09:28:42;98013.06;;;16.10;24.59
35649;BME280;21768;48.562;13.414;2023-02-28T09:31:13;98013.97;;;17.44;23.46
35649;BME280;21768;48.562;13.414;2023-02-28T09:33:39;98014.19;;;17.30;23.06
35649;BME280;21768;48.562;13.414;2023-02-28T09:36:05;98016.25;;;17.73;23.17
35649;BME280;21768;48.562;13.414;2023-02-28T09:38:30;98011.66;;;18.79;22.33
35649;BME280;21768;48.562;13.414;2023-02-28T09:40:58;98013.94;;;20.20;21.11
35649;BME280;21768;48.562;13.414;2023-02-28T09:43:28;98021.19;;;20.78;20.18
35649;BME280;21768;48.562;13.414;2023-02-28T09:45:58;98027.72;;;21.19;20.07
35649;BME280;21768;48.562;13.414;2023-02-28T09:48:39;98025.28;;;20.49;19.67
35649;BME280;21768;48.562;13.414;2023-02-28T09:53:51;98027.56;;;18.15;21.81
35649;BME280;21768;48.562;13.414;2023-02-28T09:56:26;98032.66;;;18.52;21.66
35649;BME280;21768;48.562;13.414;2023-02-28T10:01:37;98038.22;;;18.44;21.76
35649;BME280;21768;48.562;13.414;2023-02-28T10:04:17;98034.19;;;19.27;21.29
35649;BME280;21768;48.562;13.414;2023-02-28T10:06:50;98037.41;;;20.77;21.69
35649;BME280;21768;48.562;13.414;2023-02-28T10:09:23;98034.91;;;21.81;19.68
35649;BME280;21768;48.562;13.414;2023-02-28T10:11:54;98034.44;;;21.66;19.07
35649;BME280;21768;48.562;13.414;2023-02-28T10:14:23;98042.47;;;20.29;19.38
35649;BME280;21768;48.562;13.414;2023-02-28T10:16:59;98040.63;;;19.59;20.86
35649;BME280;21768;48.562;13.414;2023-02-28T10:19:34;98049.91;;;18.58;21.51
35649;BME280;21768;48.562;13.414;2023-02-28T10:22:05;98055.78;;;17.29;22.82
35649;BME280;21768;48.562;13.414;2023-02-28T10:24:40;98047.13;;;18.34;21.35
35649;BME280;21768;48.562;13.414;2023-02-28T10:27:17;98052.50;;;19.38;20.46
35649;BME280;21768;48.562;13.414;2023-02-28T10:29:45;98043.88;;;18.56;21.41
35649;BME280;21768;48.562;13.414;2023-02-28T10:32:15;98061.44;;;17.06;23.21
35649;BME280;21768;48.562;13.414;2023-02-28T10:34:42;98047.22;;;16.77;23.29
35649;BME280;21768;48.562;13.414;2023-02-28T10:37:07;98055.19;;;18.05;22.06
35649;BME280;21768;48.562;13.414;2023-02-28T10:39:46;98054.53;;;19.24;20.93
35649;BME280;21768;48.562;13.414;2023-02-28T10:42:29;98046.91;;;18.86;21.12
35649;BME280;21768;48.562;13.414;2023-02-28T10:45:12;98049.16;;;19.60;20.90
35649;BME280;21768;48.562;13.414;2023-02-28T11:03:47;98048.66;;;17.58;22.40
35649;BME280;21768;48.562;13.414;2023-02-28T11:06:22;98050.75;;;16.32;23.34
35649;BME280;21768;48.562;13.414;2023-02-28T11:08:53;98053.94;;;16.60;23.88
35649;BME280;21768;48.562;13.414;2023-02-28T11:11:20;98043.41;;;18.08;22.81
35649;BME280;21768;48.562;13.414;2023-02-28T11:13:46;98047.25;;;18.55;22.52
35649;BME280;21768;48.562;13.414;2023-02-28T11:16:13;98040.78;;;19.01;21.78
35649;BME280;21768;48.562;13.414;2023-02-28T11:18:43;98045.16;;;18.65;21.61
35649;BME280;21768;48.562;13.414;2023-02-28T11:21:26;98036.84;;;18.69;22.38
35649;BME280;21768;48.562;13.414;2023-02-28T11:24:02;98031.09;;;19.15;21.28
35649;BME280;21768;48.562;13.414;2023-02-28T11:26:43;98047.75;;;18.28;22.56
35649;BME280;21768;48.562;13.414;2023-02-28T11:29:12;98046.53;;;16.97;23.12
35649;BME280;21768;48.562;13.414;2023-02-28T11:31:41;98037.56;;;16.72;23.94
35649;BME280;21768;48.562;13.414;2023-02-28T11:34:25;98036.69;;;16.71;23.98
35649;BME280;21768;48.562;13.414;2023-02-28T11:36:51;98036.56;;;16.37;24.88
35649;BME280;21768;48.562;13.414;2023-02-28T11:39:18;98039.81;;;16.02;24.39
35649;BME280;21768;48.562;13.414;2023-02-28T11:55:16;98013.41;;;21.51;20.15
35649;BME280;21768;48.562;13.414;2023-02-28T11:57:52;98009.22;;;22.38;19.14
35649;BME280;21768;48.562;13.414;2023-02-28T12:06:00;98016.69;;;24.33;17.68
35649;BME280;21768;48.562;13.414;2023-02-28T12:16:40;98007.53;;;20.09;20.67
35649;BME280;21768;48.562;13.414;2023-02-28T12:25:22;98007.78;;;15.60;24.52
35649;BME280;21768;48.562;13.414;2023-02-28T12:27:51;98013.00;;;14.73;26.29
35649;BME280;21768;48.562;13.414;2023-02-28T12:30:25;98008.03;;;14.19;26.71
35649;BME280;21768;48.562;13.414;2023-02-28T12:33:04;98007.44;;;13.69;27.93
35649;BME280;21768;48.562;13.414;2023-02-28T12:35:37;98009.09;;;13.15;28.37
35649;BME280;21768;48.562;13.414;2023-02-28T12:38:14;98012.38;;;12.63;29.53
35649;BME280;21768;48.562;13.414;2023-02-28T12:40:48;98007.25;;;12.37;30.10
35649;BME280;21768;48.562;13.414;2023-02-28T12:43:17;98002.88;;;12.34;30.04
35649;BME280;21768;48.562;13.414;2023-02-28T12:45:48;98009.94;;;12.26;30.16
35649;BME280;21768;48.562;13.414;2023-02-28T12:48:20;98007.47;;;12.03;30.89
35649;BME280;21768;48.562;13.414;2023-02-28T12:50:48;98003.88;;;11.88;30.90
35649;BME280;21768;48.562;13.414;2023-02-28T12:53:43;98007.88;;;11.84;30.45
35649;BME280;21768;48.562;13.414;2023-02-28T12:56:27;98009.59;;;11.74;30.77
35649;BME280;21768;48.562;13.414;2023-02-28T12:58:59;98009.06;;;12.14;30.66
35649;BME280;21768;48.562;13.414;2023-02-28T13:07:13;97993.13;;;14.10;28.82
35649;BME280;21768;48.562;13.414;2023-02-28T13:09:56;97987.38;;;16.38;26.29
35649;BME280;21768;48.562;13.414;2023-02-28T13:12:23;97986.75;;;18.17;24.21
35649;BME280;21768;48.562;13.414;2023-02-28T13:14:49;97989.25;;;18.15;23.56
35649;BME280;21768;48.562;13.414;2023-02-28T13:17:22;97982.94;;;19.26;22.47
35649;BME280;21768;48.562;13.414;2023-02-28T13:24:55;97981.78;;;23.00;19.31
35649;BME280;21768;48.562;13.414;2023-02-28T13:27:38;97973.44;;;23.10;19.57
35649;BME280;21768;48.562;13.414;2023-02-28T13:44:14;97978.78;;;22.53;19.08
35649;BME280;21768;48.562;13.414;2023-02-28T14:00:35;97980.16;;;22.11;19.42
35649;BME280;21768;48.562;13.414;2023-02-28T14:06:08;97990.44;;;24.54;17.79
35649;BME280;21768;48.562;13.414;2023-02-28T14:08:35;97982.28;;;24.74;17.39
35649;BME280;21768;48.562;13.414;2023-02-28T14:11:08;97981.38;;;25.19;17.21
35649;BME280;21768;48.562;13.414;2023-02-28T14:13:44;97982.75;;;24.55;17.34
35649;BME280;21768;48.562;13.414;2023-02-28T14:16:15;97989.13;;;23.91;17.24
35649;BME280;21768;48.562;13.414;2023-02-28T14:18:42;97989.22;;;23.94;17.63
35649;BME280;21768;48.562;13.414;2023-02-28T14:21:14;97978.47;;;24.57;17.26
35649;BME280;21768;48.562;13.414;2023-02-28T14:26:41;97986.16;;;23.38;17.80
35649;BME280;21768;48.562;13.414;2023-02-28T14:32:02;97987.31;;;20.62;20.04
35649;BME280;21768;48.562;13.414;2023-02-28T14:37:01;97998.84;;;16.14;24.31
35649;BME280;21768;48.562;13.414;2023-02-28T14:39:28;97999.16;;;14.68;26.13
35649;BME280;21768;48.562;13.414;2023-02-28T14:41:58;98005.97;;;13.85;27.00
35649;BME280;21768;48.562;13.414;2023-02-28T14:44:30;98008.34;;;13.16;28.17
35649;BME280;21768;48.562;13.414;2023-02-28T14:47:02;98013.91;;;12.48;29.25
35649;BME280;21768;48.562;13.414;2023-02-28T14:49:31;98019.31;;;11.79;29.71
35649;BME280;21768;48.562;13.414;2023-02-28T14:52:12;98005.47;;;11.16;30.89
35649;BME280;21768;48.562;13.414;2023-02-28T14:54:40;98012.97;;;10.57;31.83
35649;BME280;21768;48.562;13.414;2023-02-28T14:57:06;98007.66;;;10.21;32.42
35649;BME280;21768;48.562;13.414;2023-02-28T14:59:45;98021.19;;;9.89;33.13
35649;BME280;21768;48.562;13.414;2023-02-28T15:02:18;98022.50;;;9.74;33.52
35649;BME280;21768;48.562;13.414;2023-02-28T15:04:55;98025.88;;;9.53;33.74
35649;BME280;21768;48.562;13.414;2023-02-28T15:07:21;98025.69;;;9.30;34.46
35649;BME280;21768;48.562;13.414;2023-02-28T15:12:59;98031.44;;;8.76;34.89
35649;BME280;21768;48.562;13.414;2023-02-28T15:17:56;98029.25;;;8.30;36.52
35649;BME280;21768;48.562;13.414;2023-02-28T15:20:24;98034.00;;;8.17;36.58
35649;BME280;21768;48.562;13.414;2023-02-28T15:22:52;98040.00;;;7.99;36.88
35649;BME280;21768;48.562;13.414;2023-02-28T15:25:21;98032.19;;;7.85;37.10
35649;BME280;21768;48.562;13.414;2023-02-28T15:27:50;98036.69;;;7.50;37.73
35649;BME280;21768;48.562;13.414;2023-02-28T15:30:37;98035.50;;;7.37;37.37
35649;BME280;21768;48.562;13.414;2023-02-28T15:33:19;98041.13;;;7.34;38.20
35649;BME280;21768;48.562;13.414;2023-02-28T15:35:45;98041.72;;;7.32;38.41
35649;BME280;21768;48.562;13.414;2023-02-28T15:40:45;98041.91;;;7.14;39.23